Time;durP1;ratioP1;P1;durP2;ratioP2;P2;SDS_P1;SDS_P2;PMS_P1;PMS_P2;Temp;Humidity;BMP_temperature;BMP_pressure;BME280_temperature;BME280_humidity;BME280_pressure;Samples;Min_cycle;Max_cycle;Signal;HPM_P1;HPM_P2
2024/01/14 00:01:16;;;;;;;;;;;;;;;17.78;33.04;100916.34;5037933;28;1092;-60
2024/01/14 00:03:41;;;;;;;;;;;;;;;16.73;34.88;100926.72;5037860;28;1048;-59
2024/01/14 00:06:07;;;;;;;;;;;;;;;17.37;33.97;100921.88;5038282;28;1115;-59
2024/01/14 00:08:33;;;;;;;;;;;;;;;17.63;33.28;100908.13;5037870;28;1089;-59
2024/01/14 00:10:58;;;;;;;;;;;;;;;16.66;35.21;100906.94;5038032;28;1293;-59
2024/01/14 00:13:24;;;;;;;;;;;;;;;16.68;35.12;100910.25;5037940;28;1061;-59
2024/01/14 00:15:49;;;;;;;;;;;;;;;17.73;33.13;100896.28;5037784;28;1957;-59
2024/01/14 00:18:15;;;;;;;;;;;;;;;16.60;35.10;100903.34;5037647;28;1235;-59
2024/01/14 00:20:41;;;;;;;;;;;;;;;17.08;34.38;100916.09;5037932;28;1075;-58
2024/01/14 00:23:06;;;;;;;;;;;;;;;18.50;32.05;100901.50;5037392;28;1008;-58
2024/01/14 00:25:32;;;;;;;;;;;;;;;17.26;33.82;100901.00;5037960;28;1104;-58
2024/01/14 00:27:57;;;;;;;;;;;;;;;16.63;35.29;100896.50;5037626;28;1076;-59
2024/01/14 00:30:24;;;;;;;;;;;;;;;16.88;34.98;100892.16;5036978;28;1281;-59
2024/01/14 00:32:49;;;;;;;;;;;;;;;17.77;33.15;100892.69;5037403;28;1131;-59
2024/01/14 00:35:15;;;;;;;;;;;;;;;16.61;35.30;100906.94;5037367;28;1961;-59
2024/01/14 00:37:41;;;;;;;;;;;;;;;16.86;34.85;100894.34;5037614;28;1162;-58
2024/01/14 00:40:07;;;;;;;;;;;;;;;17.69;33.16;100897.94;5037543;28;1131;-58
2024/01/14 00:42:33;;;;;;;;;;;;;;;16.67;35.09;100902.28;5037236;28;1107;-58
2024/01/14 00:44:58;;;;;;;;;;;;;;;17.02;34.65;100892.47;5037421;28;1127;-58
2024/01/14 00:47:24;;;;;;;;;;;;;;;17.53;33.43;100895.22;5037272;28;1120;-58
2024/01/14 00:49:50;;;;;;;;;;;;;;;16.61;35.10;100898.69;5037104;28;1204;-58
2024/01/14 00:52:15;;;;;;;;;;;;;;;17.26;34.09;100899.09;5037063;28;1100;-58
2024/01/14 00:54:41;;;;;;;;;;;;;;;17.48;33.65;100888.91;5036732;28;1068;-58
2024/01/14 00:57:08;;;;;;;;;;;;;;;16.58;35.23;100891.00;5037025;28;1969;-58
2024/01/14 00:59:33;;;;;;;;;;;;;;;17.35;33.96;100891.09;5037051;28;1036;-58
2024/01/14 01:01:59;;;;;;;;;;;;;;;18.20;32.30;100895.06;5037122;28;1135;-58
2024/01/14 01:04:24;;;;;;;;;;;;;;;16.89;34.46;100891.09;5036951;28;1120;-58
2024/01/14 01:06:50;;;;;;;;;;;;;;;16.30;36.01;100900.50;5036985;28;1087;-58
2024/01/14 01:09:16;;;;;;;;;;;;;;;18.21;32.32;100901.38;5037657;28;1076;-58
2024/01/14 01:11:41;;;;;;;;;;;;;;;16.87;34.86;100901.47;5036991;28;1165;-58
2024/01/14 01:14:07;;;;;;;;;;;;;;;16.28;35.82;100894.47;5036246;28;1092;-58
2024/01/14 01:16:33;;;;;;;;;;;;;;;17.84;32.98;100895.16;5036649;28;1913;-58
2024/01/14 01:18:59;;;;;;;;;;;;;;;17.30;34.00;100888.34;5036674;28;1239;-58
2024/01/14 01:21:24;;;;;;;;;;;;;;;16.46;35.56;100883.00;5036239;28;1176;-59
2024/01/14 01:23:50;;;;;;;;;;;;;;;16.92;34.90;100879.56;5036284;28;1060;-60
2024/01/14 01:26:16;;;;;;;;;;;;;;;18.04;32.44;100886.03;5036507;28;1072;-60
2024/01/14 01:28:41;;;;;;;;;;;;;;;16.86;34.91;100889.69;5036132;28;1131;-59
2024/01/14 01:31:07;;;;;;;;;;;;;;;16.30;35.77;100892.28;5036299;28;1088;-58
2024/01/14 01:33:32;;;;;;;;;;;;;;;17.89;32.91;100877.78;5036463;28;1099;-59
2024/01/14 01:35:58;;;;;;;;;;;;;;;17.64;33.44;100884.19;5035666;28;1914;-59
2024/01/14 01:38:23;;;;;;;;;;;;;;;16.77;34.92;100889.41;5036685;28;1504;-59
2024/01/14 01:40:49;;;;;;;;;;;;;;;16.24;35.75;100872.22;5036206;28;1238;-58
2024/01/14 01:43:14;;;;;;;;;;;;;;;17.29;34.07;100867.44;5036138;28;1180;-57
2024/01/14 01:45:40;;;;;;;;;;;;;;;18.51;31.84;100864.63;5036581;28;1167;-58
2024/01/14 01:48:06;;;;;;;;;;;;;;;16.99;34.46;100855.38;5036471;28;1147;-58
2024/01/14 01:50:32;;;;;;;;;;;;;;;16.53;35.48;100864.34;5036431;28;1148;-58
2024/01/14 01:52:58;;;;;;;;;;;;;;;16.12;36.21;100847.78;5036448;28;1139;-60
2024/01/14 01:55:23;;;;;;;;;;;;;;;17.49;33.63;100852.88;5035964;28;1906;-60
2024/01/14 01:57:49;;;;;;;;;;;;;;;17.09;34.32;100840.81;5035992;28;1139;-60
2024/01/14 02:00:14;;;;;;;;;;;;;;;16.37;35.77;100843.47;5036257;28;1536;-60
2024/01/14 02:02:40;;;;;;;;;;;;;;;17.13;34.28;100838.34;5035848;28;1119;-59
2024/01/14 02:05:06;;;;;;;;;;;;;;;17.57;33.43;100832.22;5036018;28;1131;-59
2024/01/14 02:07:32;;;;;;;;;;;;;;;16.59;35.31;100834.97;5035718;28;1057;-59
2024/01/14 02:09:57;;;;;;;;;;;;;;;17.66;33.57;100832.50;5036421;28;1176;-58
2024/01/14 02:12:23;;;;;;;;;;;;;;;17.32;33.69;100822.94;5035666;28;1116;-58
2024/01/14 02:14:48;;;;;;;;;;;;;;;16.51;35.41;100808.06;5036304;28;1088;-58
2024/01/14 02:17:14;;;;;;;;;;;;;;;16.17;36.08;100800.31;5018224;28;1895;-60
2024/01/14 02:19:40;;;;;;;;;;;;;;;17.88;32.91;100796.38;5035810;28;1092;-59
2024/01/14 02:22:13;;;;;;;;;;;;;;;17.45;33.43;100786.63;5035816;28;1127;-59
2024/01/14 02:24:38;;;;;;;;;;;;;;;16.64;35.07;100793.81;5018600;28;1092;-59
2024/01/14 02:27:04;;;;;;;;;;;;;;;16.89;35.09;100786.72;5035837;28;1203;-59
2024/01/14 02:29:29;;;;;;;;;;;;;;;18.43;32.17;100772.41;5035917;28;1103;-60
2024/01/14 02:31:55;;;;;;;;;;;;;;;17.00;34.30;100769.13;5035827;28;1091;-59
2024/01/14 02:34:21;;;;;;;;;;;;;;;16.45;35.72;100778.97;5035691;28;1068;-59
2024/01/14 02:36:46;;;;;;;;;;;;;;;18.23;32.56;100778.88;5035754;28;1953;-59
2024/01/14 02:39:12;;;;;;;;;;;;;;;17.03;34.71;100793.28;5035930;28;1154;-59
2024/01/14 02:41:38;;;;;;;;;;;;;;;16.50;35.61;100788.03;5035823;28;1077;-59
2024/01/14 02:44:03;;;;;;;;;;;;;;;17.04;34.62;100777.63;5035024;28;1157;-59
2024/01/14 02:46:29;;;;;;;;;;;;;;;18.40;32.03;100773.00;5035311;28;1120;-59
2024/01/14 02:48:55;;;;;;;;;;;;;;;16.87;34.78;100770.50;5036109;28;1127;-58
2024/01/14 02:51:20;;;;;;;;;;;;;;;16.41;35.62;100768.53;5035659;28;1107;-58
2024/01/14 02:53:46;;;;;;;;;;;;;;;18.05;32.89;100761.09;5035723;28;1120;-60
2024/01/14 02:56:12;;;;;;;;;;;;;;;16.77;35.13;100767.72;5035327;28;1957;-60
2024/01/14 02:58:37;;;;;;;;;;;;;;;16.33;35.58;100780.06;5034864;28;1002;-61
2024/01/14 03:01:03;;;;;;;;;;;;;;;17.34;33.86;100782.25;5035535;28;1128;-60
2024/01/14 03:03:29;;;;;;;;;;;;;;;17.68;33.19;100780.78;5035719;28;1168;-60
2024/01/14 03:05:54;;;;;;;;;;;;;;;16.57;35.29;100768.56;5035723;28;1075;-60
2024/01/14 03:08:20;;;;;;;;;;;;;;;17.43;33.95;100780.59;5034759;28;1081;-59
2024/01/14 03:10:46;;;;;;;;;;;;;;;18.60;31.88;100773.94;5035277;28;1144;-59
2024/01/14 03:13:13;;;;;;;;;;;;;;;17.31;33.79;100779.25;5035599;28;1123;-60
2024/01/14 03:15:39;;;;;;;;;;;;;;;16.55;35.44;100784.47;5039245;28;1960;-59
2024/01/14 03:18:05;;;;;;;;;;;;;;;16.41;35.99;100796.00;5021228;28;1096;-59
2024/01/14 03:20:30;;;;;;;;;;;;;;;18.21;32.39;100774.78;5038884;28;1079;-59
2024/01/14 03:22:56;;;;;;;;;;;;;;;17.50;33.57;100772.06;5038852;28;1020;-59
2024/01/14 03:25:21;;;;;;;;;;;;;;;16.69;35.26;100779.25;5039181;28;1079;-58
2024/01/14 03:27:47;;;;;;;;;;;;;;;16.32;35.73;100774.84;5038302;28;1146;-58
2024/01/14 03:30:13;;;;;;;;;;;;;;;17.91;32.99;100760.09;5038970;28;1156;-58
2024/01/14 03:32:38;;;;;;;;;;;;;;;17.79;33.15;100763.13;5038635;28;1065;-58
2024/01/14 03:35:04;;;;;;;;;;;;;;;16.85;35.06;100766.38;5038349;28;1147;-58
2024/01/14 03:37:30;;;;;;;;;;;;;;;17.39;34.18;100763.00;5038349;28;1990;-58
2024/01/14 03:39:56;;;;;;;;;;;;;;;17.23;34.20;100762.22;5038158;28;1067;-59
2024/01/14 03:42:22;;;;;;;;;;;;;;;16.51;35.49;100755.91;5038273;28;1187;-58
2024/01/14 03:44:48;;;;;;;;;;;;;;;18.09;32.89;100753.09;5038405;28;1266;-58
2024/01/14 03:47:14;;;;;;;;;;;;;;;17.44;33.61;100743.72;5038840;28;1301;-58
2024/01/14 03:49:40;;;;;;;;;;;;;;;16.61;35.04;100744.97;5038280;28;1061;-58
2024/01/14 03:52:05;;;;;;;;;;;;;;;18.29;32.53;100749.41;5038786;28;1076;-58
2024/01/14 03:54:31;;;;;;;;;;;;;;;17.06;34.61;100751.53;5038220;28;1155;-58
2024/01/14 03:56:56;;;;;;;;;;;;;;;16.50;35.48;100749.59;5020532;28;1968;-59
2024/01/14 03:59:22;;;;;;;;;;;;;;;16.28;36.23;100757.28;5038036;28;1064;-58
2024/01/14 04:01:47;;;;;;;;;;;;;;;17.60;33.82;100755.50;5038277;28;1134;-59
2024/01/14 04:04:13;;;;;;;;;;;;;;;17.95;32.90;100745.47;5038196;28;1024;-58
2024/01/14 04:06:38;;;;;;;;;;;;;;;16.84;35.03;100742.75;5038221;28;1374;-58
2024/01/14 04:09:04;;;;;;;;;;;;;;;16.34;36.00;100737.81;5037445;28;912;-58
2024/01/14 04:11:30;;;;;;;;;;;;;;;17.92;33.26;100731.44;5037568;28;1242;-58
2024/01/14 04:13:56;;;;;;;;;;;;;;;17.31;34.13;100733.34;5038075;28;1135;-58
2024/01/14 04:16:22;;;;;;;;;;;;;;;16.54;35.72;100731.50;5037904;28;1914;-58
2024/01/14 04:18:47;;;;;;;;;;;;;;;16.26;36.13;100732.84;5037556;28;1032;-52
2024/01/14 04:21:22;;;;;;;;;;;;;;;17.58;33.61;100724.72;5037515;28;1102;-58
2024/01/14 04:23:48;;;;;;;;;;;;;;;18.11;32.53;100726.94;5038000;28;1052;-51
2024/01/14 04:26:13;;;;;;;;;;;;;;;16.77;35.02;100721.88;5036598;28;1107;-53
2024/01/14 04:28:39;;;;;;;;;;;;;;;16.31;36.17;100713.63;5037905;28;1079;-56
2024/01/14 04:31:04;;;;;;;;;;;;;;;17.38;33.99;100713.81;5037277;28;1159;-56
2024/01/14 04:33:30;;;;;;;;;;;;;;;17.26;34.13;100708.63;5037135;28;877;-56
2024/01/14 04:35:56;;;;;;;;;;;;;;;16.37;35.97;100707.06;5037786;28;1905;-58
2024/01/14 04:38:22;;;;;;;;;;;;;;;16.57;35.78;100708.16;5037707;28;1116;-58
2024/01/14 04:40:47;;;;;;;;;;;;;;;18.20;32.73;100701.56;5037049;28;1107;-58
2024/01/14 04:43:13;;;;;;;;;;;;;;;16.85;35.06;100711.44;5037441;28;1123;-58
2024/01/14 04:45:38;;;;;;;;;;;;;;;16.28;36.14;100708.69;5037069;28;1079;-57
2024/01/14 04:48:04;;;;;;;;;;;;;;;16.02;36.56;100721.53;5037201;28;1075;-58
2024/01/14 04:50:30;;;;;;;;;;;;;;;17.18;34.51;100714.69;5037155;28;1239;-57
2024/01/14 04:52:55;;;;;;;;;;;;;;;17.80;33.11;100707.03;5037343;28;1139;-57
2024/01/14 04:55:21;;;;;;;;;;;;;;;16.66;35.43;100712.03;5037080;28;1914;-60
2024/01/14 04:57:47;;;;;;;;;;;;;;;16.25;36.22;100706.50;5037124;28;838;-60
2024/01/14 05:00:12;;;;;;;;;;;;;;;18.05;33.13;100711.56;5037251;28;1227;-59
2024/01/14 05:02:38;;;;;;;;;;;;;;;17.02;34.74;100720.22;5036800;28;1156;-58
2024/01/14 05:05:04;;;;;;;;;;;;;;;16.42;35.75;100708.97;5037202;28;1040;-57
2024/01/14 05:07:30;;;;;;;;;;;;;;;18.13;32.76;100716.47;5036767;28;1029;-58
2024/01/14 05:09:55;;;;;;;;;;;;;;;16.79;35.26;100705.13;5036428;28;1043;-57
2024/01/14 05:12:21;;;;;;;;;;;;;;;16.27;36.23;100703.50;5036459;28;1194;-56
2024/01/14 05:14:47;;;;;;;;;;;;;;;17.93;33.45;100709.16;5036587;28;1088;-57
2024/01/14 05:17:12;;;;;;;;;;;;;;;18.28;32.63;100704.53;5036384;28;1979;-59
2024/01/14 05:19:41;;;;;;;;;;;;;;;17.02;34.69;100702.91;5036894;28;1085;-57
2024/01/14 05:22:06;;;;;;;;;;;;;;;17.69;33.57;100697.19;5036206;28;903;-57
2024/01/14 05:24:32;;;;;;;;;;;;;;;16.95;34.67;100703.22;5036741;28;1012;-57
2024/01/14 05:26:58;;;;;;;;;;;;;;;16.53;35.73;100705.13;5037086;28;1123;-57
2024/01/14 05:29:23;;;;;;;;;;;;;;;16.16;36.40;100698.00;5036615;28;1044;-58
2024/01/14 05:31:49;;;;;;;;;;;;;;;15.89;36.84;100707.28;5036274;28;1127;-58
2024/01/14 05:34:15;;;;;;;;;;;;;;;17.50;33.75;100700.56;5036051;28;901;-58
2024/01/14 05:36:40;;;;;;;;;;;;;;;17.11;34.27;100693.03;5036208;28;1898;-57
2024/01/14 05:39:06;;;;;;;;;;;;;;;16.25;35.93;100693.59;5037019;28;1072;-58
2024/01/14 05:41:31;;;;;;;;;;;;;;;15.89;36.62;100695.47;5036441;28;1084;-59
2024/01/14 05:43:57;;;;;;;;;;;;;;;17.40;34.04;100684.94;5035993;28;1148;-58
2024/01/14 05:46:23;;;;;;;;;;;;;;;17.49;33.55;100692.59;5036112;28;1227;-62
2024/01/14 05:48:49;;;;;;;;;;;;;;;16.46;35.57;100677.16;5036258;28;1152;-60
2024/01/14 05:51:15;;;;;;;;;;;;;;;16.64;35.28;100673.03;5036631;28;1164;-63
2024/01/14 05:53:40;;;;;;;;;;;;;;;17.90;33.15;100681.38;5035730;28;1142;-61
2024/01/14 05:56:06;;;;;;;;;;;;;;;16.77;34.78;100674.38;5035990;28;1950;-64
2024/01/14 05:58:31;;;;;;;;;;;;;;;16.14;36.25;100672.75;5035937;28;925;-60
2024/01/14 06:00:57;;;;;;;;;;;;;;;16.67;35.54;100679.88;5036197;28;1158;-59
2024/01/14 06:03:22;;;;;;;;;;;;;;;17.90;33.24;100673.13;5035734;28;1063;-61
2024/01/14 06:05:48;;;;;;;;;;;;;;;16.74;34.91;100667.50;5035832;28;1068;-60
2024/01/14 06:08:14;;;;;;;;;;;;;;;16.18;36.14;100656.56;5035555;28;1055;-59
2024/01/14 06:10:39;;;;;;;;;;;;;;;17.17;34.45;100660.84;5035276;28;1183;-57
2024/01/14 06:13:05;;;;;;;;;;;;;;;17.51;33.50;100663.72;5036065;28;1132;-60
2024/01/14 06:15:31;;;;;;;;;;;;;;;16.56;35.37;100665.34;5036048;28;1914;-59
2024/01/14 06:17:56;;;;;;;;;;;;;;;16.02;36.54;100652.97;5035608;28;1132;-60
2024/01/14 06:20:22;;;;;;;;;;;;;;;17.47;33.81;100667.31;5036011;28;1020;-59
2024/01/14 06:22:48;;;;;;;;;;;;;;;17.50;33.68;100662.09;5035396;28;906;-61
2024/01/14 06:25:13;;;;;;;;;;;;;;;16.50;35.64;100667.25;5035294;28;1160;-59
2024/01/14 06:27:39;;;;;;;;;;;;;;;16.49;35.84;100684.81;5035745;28;1056;-59
2024/01/14 06:30:05;;;;;;;;;;;;;;;17.89;33.15;100665.97;5035610;28;1064;-62
2024/01/14 06:32:33;;;;;;;;;;;;;;;16.95;34.65;100662.00;5035491;28;1144;-58
2024/01/14 06:34:58;;;;;;;;;;;;;;;16.29;36.01;100651.91;5035566;28;980;-58
2024/01/14 06:37:24;;;;;;;;;;;;;;;16.76;35.16;100648.84;5017775;28;1918;-60
2024/01/14 06:39:49;;;;;;;;;;;;;;;17.99;33.04;100643.91;5035502;28;1167;-57
2024/01/14 06:42:15;;;;;;;;;;;;;;;17.07;34.46;100643.28;5035772;28;1072;-58
2024/01/14 06:44:41;;;;;;;;;;;;;;;16.40;35.68;100651.63;5035606;28;1115;-60
2024/01/14 06:47:06;;;;;;;;;;;;;;;16.94;35.00;100657.59;5035448;28;989;-60
2024/01/14 06:49:32;;;;;;;;;;;;;;;17.97;33.07;100651.66;5037970;28;1068;-60
2024/01/14 06:51:57;;;;;;;;;;;;;;;16.80;35.14;100642.78;5039732;28;1064;-61
2024/01/14 06:54:23;;;;;;;;;;;;;;;16.39;35.75;100640.94;5039314;28;1124;-58
2024/01/14 06:56:48;;;;;;;;;;;;;;;17.91;33.21;100644.56;5039245;28;1914;-57
2024/01/14 06:59:14;;;;;;;;;;;;;;;17.06;34.39;100647.13;5039512;28;892;-57
2024/01/14 07:01:40;;;;;;;;;;;;;;;16.36;35.76;100661.50;5039112;28;1116;-57
2024/01/14 07:04:06;;;;;;;;;;;;;;;16.82;35.18;100651.59;5039411;28;1068;-58
2024/01/14 07:06:31;;;;;;;;;;;;;;;17.93;33.14;100647.81;5039016;28;1032;-57
2024/01/14 07:08:57;;;;;;;;;;;;;;;16.75;35.16;100655.44;5038852;28;1123;-59
2024/01/14 07:11:22;;;;;;;;;;;;;;;16.17;36.15;100647.53;5038763;28;1616;-59
2024/01/14 07:13:48;;;;;;;;;;;;;;;16.99;34.87;100637.56;5038981;28;1211;-57
2024/01/14 07:16:13;;;;;;;;;;;;;;;17.89;33.17;100630.22;5038181;28;1910;-56
2024/01/14 07:18:39;;;;;;;;;;;;;;;16.73;34.97;100637.56;5039021;28;1115;-56
2024/01/14 07:21:07;;;;;;;;;;;;;;;16.16;36.13;100629.41;5039153;28;1080;-58
2024/01/14 07:23:32;;;;;;;;;;;;;;;17.22;34.52;100627.84;5038331;28;1002;-59
2024/01/14 07:25:59;;;;;;;;;;;;;;;18.13;32.60;100625.66;5038854;28;1168;-57
2024/01/14 07:28:25;;;;;;;;;;;;;;;16.90;34.67;100620.81;5039007;28;1121;-58
2024/01/14 07:30:50;;;;;;;;;;;;;;;16.26;36.00;100617.63;5038836;28;1095;-57
2024/01/14 07:33:16;;;;;;;;;;;;;;;16.54;35.74;100607.16;5038650;28;1168;-58
2024/01/14 07:35:41;;;;;;;;;;;;;;;17.93;33.06;100603.81;5037897;28;1934;-57
2024/01/14 07:38:07;;;;;;;;;;;;;;;17.12;34.52;100589.44;5038101;28;1265;-55
2024/01/14 07:40:32;;;;;;;;;;;;;;;16.40;35.88;100602.22;5038689;28;1238;-60
2024/01/14 07:42:58;;;;;;;;;;;;;;;16.89;34.97;100602.72;5038555;28;1122;-57
2024/01/14 07:45:24;;;;;;;;;;;;;;;18.02;33.01;100599.34;5038232;28;1016;-58
2024/01/14 07:47:49;;;;;;;;;;;;;;;16.82;34.97;100602.16;5038111;28;961;-60
2024/01/14 07:50:15;;;;;;;;;;;;;;;16.24;36.08;100597.84;5038833;28;1048;-58
2024/01/14 07:52:40;;;;;;;;;;;;;;;17.32;34.14;100591.25;5037994;28;1059;-58
2024/01/14 07:55:06;;;;;;;;;;;;;;;17.86;33.32;100595.84;5038294;28;1091;-58
2024/01/14 07:57:32;;;;;;;;;;;;;;;16.66;35.55;100599.44;5037781;28;1913;-57
2024/01/14 07:59:57;;;;;;;;;;;;;;;16.19;36.37;100595.94;5037527;28;943;-57
2024/01/14 08:02:23;;;;;;;;;;;;;;;17.30;34.25;100593.47;5037960;28;1096;-57
2024/01/14 08:04:49;;;;;;;;;;;;;;;17.55;33.91;100587.00;5038083;28;1052;-59
2024/01/14 08:07:14;;;;;;;;;;;;;;;16.51;35.55;100580.25;5037837;28;1119;-58
2024/01/14 08:09:40;;;;;;;;;;;;;;;16.76;35.31;100596.66;5037658;28;1164;-58
2024/01/14 08:12:06;;;;;;;;;;;;;;;18.00;32.99;100586.97;5037492;28;1413;-59
2024/01/14 08:14:31;;;;;;;;;;;;;;;16.77;35.29;100581.00;5038303;28;1285;-60
2024/01/14 08:16:57;;;;;;;;;;;;;;;16.20;36.31;100591.25;5037796;28;1975;-60
2024/01/14 08:19:23;;;;;;;;;;;;;;;17.57;33.89;100588.38;5037649;28;1060;-60
2024/01/14 08:21:49;;;;;;;;;;;;;;;17.24;34.14;100574.25;5037452;28;1005;-58
2024/01/14 08:24:14;;;;;;;;;;;;;;;16.34;35.81;100575.91;5037350;28;949;-60
2024/01/14 08:26:43;;;;;;;;;;;;;;;16.76;35.21;100577.44;5037864;28;1126;-61
2024/01/14 08:29:12;;;;;;;;;;;;;;;18.01;33.10;100589.44;5037941;28;1016;-61
2024/01/14 08:31:37;;;;;;;;;;;;;;;16.79;34.94;100580.72;5037274;28;1095;-62
2024/01/14 08:34:04;;;;;;;;;;;;;;;16.23;36.30;100560.56;5037410;28;1170;-61
2024/01/14 08:36:31;;;;;;;;;;;;;;;17.28;34.25;100567.09;5037705;28;1965;-60
2024/01/14 08:38:56;;;;;;;;;;;;;;;17.38;33.90;100570.88;5037143;28;1048;-62
2024/01/14 08:41:24;;;;;;;;;;;;;;;16.46;35.80;100570.09;5037621;28;1083;-60
2024/01/14 08:43:50;;;;;;;;;;;;;;;16.29;36.05;100562.19;5037261;28;1124;-62
2024/01/14 08:46:16;;;;;;;;;;;;;;;17.82;33.54;100553.53;5037279;28;1148;-60
2024/01/14 08:48:44;;;;;;;;;;;;;;;17.15;34.38;100566.88;5037151;28;1017;-61
2024/01/14 08:51:12;;;;;;;;;;;;;;;16.43;36.01;100557.75;5037839;28;1156;-59
2024/01/14 08:53:38;;;;;;;;;;;;;;;17.13;34.87;100545.19;5036987;28;1091;-61
2024/01/14 08:56:03;;;;;;;;;;;;;;;17.88;33.21;100543.28;5037249;28;1965;-61
2024/01/14 08:58:29;;;;;;;;;;;;;;;16.83;35.19;100532.38;5040131;28;1314;-63
2024/01/14 09:00:54;;;;;;;;;;;;;;;16.21;36.41;100532.56;5031954;28;1309;-60
2024/01/14 09:03:20;;;;;;;;;;;;;;;17.15;34.69;100536.66;5035900;28;1005;-60
2024/01/14 09:05:46;;;;;;;;;;;;;;;17.96;33.06;100534.44;5036311;28;1116;-62
2024/01/14 09:08:12;;;;;;;;;;;;;;;16.72;35.18;100521.44;5035378;28;1058;-62
2024/01/14 09:10:38;;;;;;;;;;;;;;;16.31;36.34;100521.56;5035417;28;1055;-62
2024/01/14 09:13:04;;;;;;;;;;;;;;;17.18;34.70;100509.44;5035266;28;1060;-62
2024/01/14 09:15:30;;;;;;;;;;;;;;;17.61;33.56;100509.69;5036051;28;1962;-61
2024/01/14 09:17:56;;;;;;;;;;;;;;;16.58;35.52;100509.44;5036286;28;1152;-63
2024/01/14 09:20:21;;;;;;;;;;;;;;;16.29;36.20;100517.47;5035720;28;1109;-60
2024/01/14 09:22:47;;;;;;;;;;;;;;;17.82;33.66;100512.25;5035706;28;1081;-62
2024/01/14 09:25:13;;;;;;;;;;;;;;;17.13;34.43;100492.19;5019195;28;1176;-62
2024/01/14 09:27:38;;;;;;;;;;;;;;;16.40;36.04;100497.13;5035044;28;1152;-62
2024/01/14 09:30:04;;;;;;;;;;;;;;;16.58;35.95;100492.97;5034587;28;1052;-61
2024/01/14 09:32:30;;;;;;;;;;;;;;;17.93;33.45;100482.78;5035855;28;1084;-61
2024/01/14 09:34:55;;;;;;;;;;;;;;;16.92;34.92;100492.28;5034117;28;1058;-63
2024/01/14 09:37:21;;;;;;;;;;;;;;;16.36;35.92;100471.34;5034484;28;1980;-60
2024/01/14 09:39:47;;;;;;;;;;;;;;;16.86;35.31;100482.41;5036136;28;1075;-60
2024/01/14 09:42:17;;;;;;;;;;;;;;;18.04;32.90;100478.81;5035363;28;1180;-61
2024/01/14 09:44:44;;;;;;;;;;;;;;;16.92;34.80;100470.31;5035660;28;1093;-60
2024/01/14 09:47:10;;;;;;;;;;;;;;;16.25;36.29;100452.16;5017760;28;1065;-61
2024/01/14 09:49:35;;;;;;;;;;;;;;;16.78;35.31;100445.38;5035683;28;993;-61
2024/01/14 09:52:01;;;;;;;;;;;;;;;18.03;33.01;100444.16;5035241;28;977;-60
2024/01/14 09:54:26;;;;;;;;;;;;;;;16.93;34.58;100442.56;5018015;28;1068;-59
2024/01/14 09:56:52;;;;;;;;;;;;;;;16.35;35.98;100434.03;5035722;28;1902;-59
2024/01/14 09:59:19;;;;;;;;;;;;;;;16.75;35.45;100446.75;5035169;28;1052;-62
2024/01/14 10:01:45;;;;;;;;;;;;;;;18.08;32.74;100429.53;5034170;28;1036;-62
2024/01/14 10:04:10;;;;;;;;;;;;;;;17.06;34.39;100426.56;5035883;28;1025;-61
2024/01/14 10:06:36;;;;;;;;;;;;;;;16.40;35.61;100414.81;5017702;28;1123;-63
2024/01/14 10:09:01;;;;;;;;;;;;;;;16.46;35.67;100418.34;5035602;28;1149;-61
2024/01/14 10:11:27;;;;;;;;;;;;;;;17.94;33.28;100412.91;5034894;28;1080;-59
2024/01/14 10:13:53;;;;;;;;;;;;;;;16.95;34.46;100403.81;5035029;28;1045;-61
2024/01/14 10:16:18;;;;;;;;;;;;;;;16.38;35.56;100423.31;5035103;28;1906;-62
2024/01/14 10:18:44;;;;;;;;;;;;;;;17.13;34.45;100399.56;5034568;28;1028;-62
2024/01/14 10:21:10;;;;;;;;;;;;;;;17.81;33.24;100394.28;5035095;28;1000;-60
2024/01/14 10:23:35;;;;;;;;;;;;;;;16.71;35.00;100403.69;5035808;28;988;-62
2024/01/14 10:26:01;;;;;;;;;;;;;;;16.18;36.03;100393.22;5039292;28;1025;-61
2024/01/14 10:28:33;;;;;;;;;;;;;;;17.71;33.59;100398.81;5038961;28;1451;-61
2024/01/14 10:31:00;;;;;;;;;;;;;;;17.28;33.75;100391.22;5039852;28;1187;-61
2024/01/14 10:33:26;;;;;;;;;;;;;;;16.53;35.14;100381.25;5038868;28;1056;-60
2024/01/14 10:35:52;;;;;;;;;;;;;;;16.66;35.22;100382.56;5038536;28;1971;-62
2024/01/14 10:38:19;;;;;;;;;;;;;;;17.98;32.67;100369.09;5039852;28;1092;-60
2024/01/14 10:40:45;;;;;;;;;;;;;;;16.87;34.54;100371.44;5039512;28;1020;-60
2024/01/14 10:43:10;;;;;;;;;;;;;;;16.34;35.72;100372.84;5038939;28;1167;-60
2024/01/14 10:45:36;;;;;;;;;;;;;;;17.26;33.96;100368.72;5039447;28;1123;-59
2024/01/14 10:48:02;;;;;;;;;;;;;;;17.68;33.17;100371.06;5038429;28;1083;-59
2024/01/14 10:50:27;;;;;;;;;;;;;;;16.71;35.05;100370.72;5021754;28;1143;-59
2024/01/14 10:52:56;;;;;;;;;;;;;;;16.27;35.61;100374.25;5039455;28;1075;-59
2024/01/14 10:55:31;;;;;;;;;;;;;;;17.61;33.61;100360.41;5039340;28;1110;-58
2024/01/14 10:57:57;;;;;;;;;;;;;;;17.22;34.02;100353.06;5039129;28;1071;-58
2024/01/14 11:00:22;;;;;;;;;;;;;;;16.46;35.15;100355.22;5021662;28;1131;-58
2024/01/14 11:02:48;;;;;;;;;;;;;;;16.40;35.35;100362.66;5021450;28;1247;-58
2024/01/14 11:05:13;;;;;;;;;;;;;;;17.91;32.87;100352.97;5039324;28;1055;-58
2024/01/14 11:07:39;;;;;;;;;;;;;;;17.00;34.37;100340.63;5039462;28;1071;-59
2024/01/14 11:10:05;;;;;;;;;;;;;;;16.33;35.65;100341.03;5021435;28;1216;-59
2024/01/14 11:12:43;;;;;;;;;;;;;;;17.16;34.15;100338.56;5020885;28;1139;-59
2024/01/14 11:15:24;;;;;;;;;;;;;;;17.61;33.35;100332.91;5039369;28;1044;-59
2024/01/14 11:18:19;;;;;;;;;;;;;;;16.54;35.00;100344.47;5027877;28;1910;-57
2024/01/14 11:20:45;;;;;;;;;;;;;;;17.28;33.98;100327.19;5025732;28;1250;-56
2024/01/14 11:23:10;;;;;;;;;;;;;;;17.76;33.09;100334.69;5038566;28;1041;-57
2024/01/14 11:25:36;;;;;;;;;;;;;;;16.80;34.63;100318.78;5038260;28;1020;-58
2024/01/14 11:28:05;;;;;;;;;;;;;;;16.34;35.42;100312.50;5038744;28;1047;-57
2024/01/14 11:30:46;;;;;;;;;;;;;;;17.22;33.91;100312.69;5038475;28;1183;-57
2024/01/14 11:33:39;;;;;;;;;;;;;;;17.56;33.46;100308.22;5038812;28;1028;-59
2024/01/14 11:36:04;;;;;;;;;;;;;;;16.62;35.14;100306.53;5027896;28;1995;-58
2024/01/14 11:38:34;;;;;;;;;;;;;;;16.52;35.36;100310.19;5038018;28;1159;-59
2024/01/14 11:41:05;;;;;;;;;;;;;;;18.03;32.60;100294.78;5038614;28;1239;-59
2024/01/14 11:43:30;;;;;;;;;;;;;;;17.03;34.15;100309.81;5020380;28;1359;-59
2024/01/14 11:45:56;;;;;;;;;;;;;;;16.44;35.28;100300.63;5038454;28;1202;-59
2024/01/14 11:48:21;;;;;;;;;;;;;;;16.20;35.85;100295.00;5038672;28;1013;-59
2024/01/14 11:50:51;;;;;;;;;;;;;;;17.72;33.15;100295.94;5038165;28;1068;-59
2024/01/14 11:53:17;;;;;;;;;;;;;;;17.18;33.86;100297.06;5037309;28;1152;-55
2024/01/14 11:55:43;;;;;;;;;;;;;;;16.47;35.34;100304.75;5019962;28;1934;-58
2024/01/14 11:58:13;;;;;;;;;;;;;;;16.77;35.19;100304.53;5037300;28;1164;-58
2024/01/14 12:00:39;;;;;;;;;;;;;;;18.09;32.76;100291.66;5037579;28;1029;-57
2024/01/14 12:03:12;;;;;;;;;;;;;;;16.94;34.40;100295.06;5037915;28;1068;-57
2024/01/14 12:05:38;;;;;;;;;;;;;;;16.42;35.68;100283.63;5036603;28;1087;-58
2024/01/14 12:08:04;;;;;;;;;;;;;;;16.41;35.81;100279.22;5037685;28;1044;-58
2024/01/14 12:10:31;;;;;;;;;;;;;;;17.89;33.09;100265.22;5037348;28;1067;-57
2024/01/14 12:13:01;;;;;;;;;;;;;;;17.04;34.28;100277.66;5036988;28;1089;-57
2024/01/14 12:15:27;;;;;;;;;;;;;;;16.32;35.71;100270.78;5037255;28;1071;-57
2024/01/14 12:17:54;;;;;;;;;;;;;;;16.92;34.67;100273.38;5037477;28;1977;-57
2024/01/14 12:20:22;;;;;;;;;;;;;;;17.91;32.70;100270.47;5037238;28;1107;-57
2024/01/14 12:22:53;;;;;;;;;;;;;;;16.80;34.70;100269.34;5037003;28;1068;-58
2024/01/14 12:25:19;;;;;;;;;;;;;;;16.25;35.92;100264.78;5036104;28;989;-57
2024/01/14 12:27:44;;;;;;;;;;;;;;;17.65;33.31;100272.66;5015752;28;1071;-56
2024/01/14 12:30:10;;;;;;;;;;;;;;;17.27;33.95;100265.09;5030979;28;1017;-56
2024/01/14 12:32:36;;;;;;;;;;;;;;;16.56;35.46;100268.16;5037151;28;1041;-56
2024/01/14 12:35:01;;;;;;;;;;;;;;;16.21;35.98;100269.22;5037016;28;1520;-58
2024/01/14 12:37:27;;;;;;;;;;;;;;;17.76;33.40;100274.16;5036602;28;1946;-55
2024/01/14 12:39:53;;;;;;;;;;;;;;;17.07;34.44;100274.38;5019576;28;1112;-55
2024/01/14 12:42:18;;;;;;;;;;;;;;;16.37;35.75;100272.69;5019088;28;1060;-54